This is the latest recevied weather packets stored in our database for station/object IN3BXS. If no packets are shown the sender has not sent any weather packets the latest 10 day(s).
| Time | Temp. | Humidity | Pressure | Rain* | Wind** | Luminosity | Snow |
|---|---|---|---|---|---|---|---|
| 1777820426 | 18.33° C | 18% | 1010.9 hPa | 0 mm | - | - | - |
| 1777818626 | 18.33° C | 18% | 1010.8 hPa | 0 mm | - | - | - |
| 1777815026 | 20° C | 17% | 1010.1 hPa | 0 mm | - | - | - |
| 1777813226 | 20.56° C | 17% | 1009.9 hPa | 0 mm | - | - | - |
| 1777811426 | 20° C | 17% | 1011.3 hPa | 0 mm | - | - | - |
| 1777807826 | 19.44° C | 17% | 1011.4 hPa | 0 mm | - | - | - |
| 1777806026 | 18.89° C | 17% | 1011.7 hPa | 0 mm | - | - | - |
| 1777804268 | 18.89° C | 18% | 1011.8 hPa | 0 mm | - | - | - |
| 1777804226 | 18.89° C | 18% | 1011.8 hPa | 0 mm | - | - | - |
| 1777802426 | 18.33° C | 18% | 1013.1 hPa | 0 mm | - | - | - |
| 1777800626 | 17.78° C | 21% | 1013.3 hPa | 0 mm | - | - | - |
| 1777798826 | 16.67° C | 21% | 1013.7 hPa | 0 mm | - | - | - |
| 1777797026 | 16.11° C | 21% | 1014 hPa | 0 mm | - | - | - |
| 1777795226 | 14.44° C | 22% | 1014.7 hPa | 0 mm | - | - | - |
| 1777793425 | 14.44° C | 22% | 1014.9 hPa | 0 mm | - | - | - |
| 1777791626 | 12.78° C | 25% | 1015.6 hPa | 0 mm | - | - | - |
| 1777789826 | 11.11° C | 26% | 1016.2 hPa | 0 mm | - | - | - |
| 1777788025 | 9.44° C | 27% | 1016.9 hPa | 0 mm | - | - | - |
| 1777786230 | 8.33° C | 28% | 1017.3 hPa | 0 mm | - | - | - |
| 1777784426 | 6.11° C | 29% | 1018.3 hPa | 0 mm | - | - | - |
| 1777782626 | 6.11° C | 29% | 1018.5 hPa | 0 mm | - | - | - |
| 1777780826 | 5.56° C | 29% | 1018.6 hPa | 0 mm | - | - | - |
| 1777779025 | 6.67° C | 28% | 1018.3 hPa | 0 mm | - | - | - |
| 1777777225 | 6.11° C | 29% | 1018.5 hPa | 0 mm | - | - | - |
| 1777775426 | 6.11° C | 30% | 1019.6 hPa | 0 mm | - | - | - |
* Rain latest hour (hover to see other rain measurements)
** Current wind speed in m/s (hover to see current wind gust speed)